createdAt,value
2018-04-26T00:01:05.358Z,8.09
2018-04-26T00:03:33.643Z,8.17
2018-04-26T00:06:01.931Z,7.96
2018-04-26T00:08:30.211Z,7.96
2018-04-26T00:10:58.487Z,7.91
2018-04-26T00:13:26.762Z,8.00
2018-04-26T00:15:55.042Z,7.99
2018-04-26T00:18:23.299Z,8.08
2018-04-26T00:20:51.578Z,8.10
2018-04-26T00:23:19.828Z,7.96
2018-04-26T00:25:48.875Z,8.06
2018-04-26T00:28:17.123Z,8.26
2018-04-26T00:30:45.392Z,8.35
2018-04-26T00:33:13.675Z,8.44
2018-04-26T00:35:41.952Z,8.48
2018-04-26T00:38:10.210Z,8.39
2018-04-26T00:40:38.471Z,8.53
2018-04-26T00:43:07.506Z,8.50
2018-04-26T00:45:35.787Z,8.58
2018-04-26T00:48:04.086Z,8.61
2018-04-26T00:50:33.114Z,8.69
2018-04-26T00:53:02.127Z,8.60
2018-04-26T00:55:30.407Z,8.57
2018-04-26T00:57:58.669Z,8.41
2018-04-26T01:00:26.946Z,8.52
2018-04-26T01:02:55.214Z,8.38
2018-04-26T01:05:24.275Z,8.40
2018-04-26T01:07:52.525Z,8.34
2018-04-26T01:10:20.779Z,8.31
2018-04-26T01:12:49.035Z,8.18
2018-04-26T01:15:18.090Z,8.28
2018-04-26T01:17:46.359Z,8.13
2018-04-26T01:20:14.607Z,8.14
2018-04-26T01:22:42.880Z,8.16
2018-04-26T01:25:11.155Z,8.16
2018-04-26T01:27:39.418Z,8.29
2018-04-26T01:30:07.678Z,8.29
2018-04-26T01:32:35.989Z,8.34
2018-04-26T01:35:04.244Z,8.43
2018-04-26T01:37:48.311Z,8.35
2018-04-26T01:40:16.593Z,8.38
2018-04-26T01:42:44.838Z,8.35
2018-04-26T01:45:13.872Z,8.33
2018-04-26T01:47:42.131Z,8.17
2018-04-26T01:50:10.404Z,8.22
2018-04-26T01:52:38.665Z,8.03
2018-04-26T01:55:06.957Z,7.97
2018-04-26T01:57:35.339Z,8.11
2018-04-26T02:00:03.594Z,8.07
2018-04-26T02:02:32.637Z,8.10
2018-04-26T02:05:00.984Z,7.98
2018-04-26T02:07:29.249Z,7.94
2018-04-26T02:09:57.500Z,7.86
2018-04-26T02:12:26.557Z,7.96
2018-04-26T02:14:54.814Z,7.81
2018-04-26T02:17:23.103Z,7.95
2018-04-26T02:19:51.363Z,8.05
2018-04-26T02:22:19.623Z,8.08
2018-04-26T02:24:47.897Z,8.15
2018-04-26T02:27:16.726Z,8.20
2018-04-26T02:29:44.996Z,8.31
2018-04-26T02:32:13.272Z,8.39
2018-04-26T02:34:41.528Z,8.37
2018-04-26T02:37:09.795Z,8.24
2018-04-26T02:39:38.076Z,8.23
2018-04-26T02:42:06.360Z,8.17
2018-04-26T02:44:34.646Z,7.81
2018-04-26T02:47:02.927Z,8.00
2018-04-26T02:49:31.190Z,8.03
2018-04-26T02:51:59.466Z,8.16
2018-04-26T02:54:27.725Z,8.20
2018-04-26T02:56:56.004Z,8.33
2018-04-26T02:59:24.280Z,8.29
2018-04-26T03:01:52.567Z,8.47
2018-04-26T03:04:20.846Z,8.47
2018-04-26T03:06:49.259Z,8.37
2018-04-26T03:09:17.543Z,8.51
2018-04-26T03:11:45.803Z,8.37
2018-04-26T03:14:14.261Z,8.53
2018-04-26T03:16:42.516Z,8.65
2018-04-26T03:19:10.768Z,8.66
2018-04-26T03:21:39.043Z,8.68
2018-04-26T03:24:08.055Z,8.89
2018-04-26T03:26:37.094Z,8.96
2018-04-26T03:29:05.444Z,9.01
2018-04-26T03:31:33.782Z,8.99
2018-04-26T03:34:02.047Z,9.10
2018-04-26T03:36:30.323Z,9.27
2018-04-26T03:38:58.660Z,9.30
2018-04-26T03:41:26.920Z,9.24
2018-04-26T03:43:55.191Z,9.30
2018-04-26T03:46:23.461Z,9.44
2018-04-26T03:48:52.606Z,9.42
2018-04-26T03:51:20.861Z,9.50
2018-04-26T03:53:49.107Z,9.38
2018-04-26T03:56:18.142Z,9.19
2018-04-26T03:58:46.395Z,9.13
2018-04-26T04:01:32.601Z,8.92
2018-04-26T04:04:19.424Z,8.86
2018-04-26T04:06:47.791Z,8.89
2018-04-26T04:09:16.052Z,8.98
2018-04-26T04:11:44.339Z,8.90
2018-04-26T04:14:12.617Z,9.01
2018-04-26T04:16:40.888Z,8.86
2018-04-26T04:19:09.182Z,8.91
2018-04-26T04:21:37.549Z,8.98
2018-04-26T04:24:05.824Z,8.72
2018-04-26T04:26:34.108Z,8.89
2018-04-26T04:29:02.359Z,8.88
2018-04-26T04:31:30.635Z,8.96
2018-04-26T04:33:58.908Z,8.97
2018-04-26T04:36:27.949Z,8.98
2018-04-26T04:38:56.198Z,9.13
2018-04-26T04:41:24.482Z,9.11
2018-04-26T04:43:52.740Z,8.87
2018-04-26T04:46:21.024Z,8.69
2018-04-26T04:48:49.350Z,8.76
2018-04-26T04:51:17.674Z,8.80
2018-04-26T04:53:45.941Z,8.75
2018-04-26T04:56:14.231Z,8.59
2018-04-26T04:58:42.508Z,8.82
2018-04-26T05:01:10.774Z,8.76
2018-04-26T05:03:39.046Z,8.94
2018-04-26T05:06:08.101Z,8.93
2018-04-26T05:08:36.368Z,9.12
2018-04-26T05:11:04.623Z,9.13
2018-04-26T05:13:32.879Z,9.20
2018-04-26T05:16:01.187Z,9.13
2018-04-26T05:18:29.443Z,9.20
2018-04-26T05:20:57.698Z,9.15
2018-04-26T05:23:25.984Z,9.27
2018-04-26T05:25:54.248Z,9.42
2018-04-26T05:28:23.267Z,9.37
2018-04-26T05:30:51.562Z,9.39
2018-04-26T05:33:19.912Z,9.27
2018-04-26T05:35:48.217Z,9.29
2018-04-26T05:38:16.576Z,9.32
2018-04-26T05:40:44.843Z,9.26
2018-04-26T05:43:13.118Z,9.30
2018-04-26T05:45:41.381Z,9.19
2018-04-26T05:48:09.686Z,9.12
2018-04-26T05:50:37.943Z,9.31
2018-04-26T05:53:06.231Z,9.22
2018-04-26T05:55:34.509Z,9.51
2018-04-26T05:58:02.818Z,9.23
2018-04-26T06:00:31.090Z,9.05
2018-04-26T06:02:59.346Z,8.80
2018-04-26T06:05:27.615Z,8.70
2018-04-26T06:07:55.876Z,8.44
2018-04-26T06:10:24.139Z,8.32
2018-04-26T06:12:53.168Z,8.13
2018-04-26T06:15:21.431Z,8.25
2018-04-26T06:17:49.730Z,8.25
2018-04-26T06:20:17.979Z,8.43
2018-04-26T06:22:46.246Z,8.61
2018-04-26T06:25:14.536Z,8.83
2018-04-26T06:27:42.790Z,8.85
2018-04-26T06:30:11.904Z,8.89
2018-04-26T06:32:40.191Z,9.08
2018-04-26T06:35:08.460Z,9.43
2018-04-26T06:37:36.742Z,9.39
2018-04-26T06:40:05.028Z,9.62
2018-04-26T06:42:33.294Z,9.71
2018-04-26T06:45:01.568Z,9.91
2018-04-26T06:47:29.853Z,9.56
2018-04-26T06:49:58.115Z,9.67
2018-04-26T06:52:26.366Z,9.60
2018-04-26T06:54:55.423Z,9.56
2018-04-26T06:57:23.690Z,9.79
2018-04-26T06:59:51.956Z,9.72
2018-04-26T07:02:20.208Z,9.83
2018-04-26T07:04:48.470Z,9.62
2018-04-26T07:07:17.516Z,9.40
2018-04-26T07:09:45.814Z,9.77
2018-04-26T07:12:14.193Z,9.85
2018-04-26T07:14:43.288Z,9.91
2018-04-26T07:17:12.374Z,9.86
2018-04-26T07:19:40.639Z,9.79
2018-04-26T07:22:08.918Z,10.06
2018-04-26T07:24:37.215Z,10.23
2018-04-26T07:27:05.469Z,10.42
2018-04-26T07:29:33.829Z,10.49
2018-04-26T07:32:02.202Z,10.44
2018-04-26T07:34:30.457Z,10.47
2018-04-26T07:36:58.748Z,10.27
2018-04-26T07:39:27.093Z,10.20
2018-04-26T07:41:56.107Z,10.06
2018-04-26T07:44:24.410Z,10.19
2018-04-26T07:46:52.683Z,10.35
2018-04-26T07:49:20.944Z,10.28
2018-04-26T07:51:49.233Z,10.31
2018-04-26T07:54:17.495Z,10.25
2018-04-26T07:56:45.771Z,10.42
2018-04-26T07:59:14.034Z,10.30
2018-04-26T08:01:42.353Z,10.35
2018-04-26T08:04:10.627Z,10.35
2018-04-26T08:06:38.894Z,10.46
2018-04-26T08:09:07.163Z,10.70
2018-04-26T08:11:35.452Z,10.84
2018-04-26T08:14:03.711Z,10.70
2018-04-26T08:16:32.021Z,10.86
2018-04-26T08:19:00.292Z,10.42
2018-04-26T08:21:28.571Z,10.43
2018-04-26T08:23:56.830Z,9.89
2018-04-26T08:26:25.959Z,9.17
2018-04-26T08:28:54.211Z,8.46
2018-04-26T08:31:22.570Z,8.18
2018-04-26T08:33:50.843Z,8.01
2018-04-26T08:36:19.225Z,7.99
2018-04-26T08:38:47.480Z,8.16
2018-04-26T08:41:15.744Z,8.12
2018-04-26T08:43:44.795Z,7.81
2018-04-26T08:46:13.063Z,7.70
2018-04-26T08:48:41.313Z,7.78
2018-04-26T08:51:09.575Z,7.53
2018-04-26T08:53:37.831Z,7.80
2018-04-26T08:56:06.148Z,8.18
2018-04-26T08:58:34.411Z,8.11
2018-04-26T09:01:02.679Z,8.29
2018-04-26T09:03:31.793Z,8.75
2018-04-26T09:06:00.052Z,9.24
2018-04-26T09:08:28.316Z,9.59
2018-04-26T09:10:57.387Z,9.30
2018-04-26T09:13:25.728Z,8.92
2018-04-26T09:15:54.009Z,8.59
2018-04-26T09:18:22.267Z,8.57
2018-04-26T09:20:50.535Z,8.62
2018-04-26T09:23:18.823Z,8.82
2018-04-26T09:25:47.087Z,9.06
2018-04-26T09:28:15.353Z,9.24
2018-04-26T09:30:44.470Z,9.57
2018-04-26T09:33:12.722Z,9.54
2018-04-26T09:35:41.767Z,9.58
2018-04-26T09:38:10.040Z,9.62
2018-04-26T09:40:38.303Z,9.22
2018-04-26T09:43:06.569Z,9.18
2018-04-26T09:45:34.943Z,9.52
2018-04-26T09:48:03.236Z,9.66
2018-04-26T09:50:31.509Z,9.39
2018-04-26T09:52:59.874Z,9.64
2018-04-26T09:55:28.181Z,10.15
2018-04-26T09:57:56.470Z,10.37
2018-04-26T10:00:28.575Z,10.81
2018-04-26T10:02:57.620Z,10.95
2018-04-26T10:05:31.558Z,10.98
2018-04-26T10:07:59.831Z,10.80
2018-04-26T10:10:28.107Z,10.82
2018-04-26T10:12:56.431Z,11.34
2018-04-26T10:15:24.714Z,11.67
2018-04-26T10:17:53.010Z,11.89
2018-04-26T10:20:21.287Z,12.11
2018-04-26T10:22:49.633Z,11.25
2018-04-26T10:25:19.771Z,11.34
2018-04-26T10:27:48.039Z,11.27
2018-04-26T10:30:16.318Z,10.88
2018-04-26T10:32:44.600Z,10.30
2018-04-26T10:35:12.870Z,10.46
2018-04-26T10:37:41.147Z,10.29
2018-04-26T10:40:09.394Z,9.51
2018-04-26T10:42:37.667Z,9.57
2018-04-26T10:45:06.795Z,9.95
2018-04-26T10:47:35.047Z,9.96
2018-04-26T10:50:03.303Z,10.09
2018-04-26T10:52:32.359Z,10.42
2018-04-26T10:55:00.616Z,10.80
2018-04-26T10:57:28.880Z,11.13
2018-04-26T10:59:57.163Z,11.37
2018-04-26T11:02:25.422Z,11.85
2018-04-26T11:04:53.728Z,11.87
2018-04-26T11:07:22.008Z,12.06
2018-04-26T11:09:50.395Z,11.84
2018-04-26T11:12:18.671Z,11.92
2018-04-26T11:14:46.935Z,12.07
2018-04-26T11:17:15.251Z,12.21
2018-04-26T11:19:43.496Z,12.57
2018-04-26T11:22:11.770Z,12.97
2018-04-26T11:24:40.035Z,13.65
2018-04-26T11:27:08.576Z,13.94
2018-04-26T11:29:36.680Z,13.92
2018-04-26T11:32:04.952Z,13.78
2018-04-26T11:34:33.246Z,13.20
2018-04-26T11:37:01.613Z,13.17
2018-04-26T11:39:29.886Z,13.10
2018-04-26T11:41:58.329Z,13.00
2018-04-26T11:44:27.426Z,12.91
2018-04-26T11:46:55.760Z,12.88
2018-04-26T11:49:24.129Z,13.38
2018-04-26T11:51:52.476Z,13.56
2018-04-26T11:54:20.799Z,13.44
2018-04-26T11:56:49.178Z,13.09
2018-04-26T11:59:17.523Z,13.45
2018-04-26T12:01:45.867Z,13.59
2018-04-26T12:04:15.044Z,13.74
2018-04-26T12:06:43.365Z,14.15
2018-04-26T12:09:11.643Z,13.50
2018-04-26T12:11:40.698Z,12.91
2018-04-26T12:14:09.028Z,12.78
2018-04-26T12:16:37.322Z,13.00
2018-04-26T12:19:05.593Z,13.09
2018-04-26T12:21:33.971Z,13.10
2018-04-26T12:24:02.390Z,13.34
2018-04-26T12:26:30.643Z,13.73
2018-04-26T12:28:58.918Z,13.98
2018-04-26T12:31:27.192Z,14.24
2018-04-26T12:33:55.459Z,14.46
2018-04-26T12:36:23.831Z,14.43
2018-04-26T12:38:52.215Z,14.16
2018-04-26T12:41:20.483Z,14.15
2018-04-26T12:43:48.891Z,14.23
2018-04-26T12:46:17.167Z,14.86
2018-04-26T12:48:45.426Z,14.71
2018-04-26T12:51:13.716Z,14.33
2018-04-26T12:53:41.979Z,14.65
2018-04-26T12:56:10.271Z,14.94
2018-04-26T12:58:38.547Z,14.81
2018-04-26T13:01:06.811Z,15.28
2018-04-26T13:03:35.080Z,14.59
2018-04-26T13:06:03.350Z,14.25
2018-04-26T13:08:31.730Z,13.98
2018-04-26T13:10:59.994Z,14.16
2018-04-26T13:13:28.381Z,14.77
2018-04-26T13:15:56.660Z,14.92
2018-04-26T13:18:24.921Z,14.72
2018-04-26T13:20:53.202Z,14.08
2018-04-26T13:23:21.485Z,13.97
2018-04-26T13:25:49.742Z,15.07
2018-04-26T13:28:18.030Z,15.86
2018-04-26T13:30:46.316Z,16.30
2018-04-26T13:33:14.596Z,16.96
2018-04-26T13:35:42.871Z,16.73
2018-04-26T13:38:11.134Z,17.20
2018-04-26T13:40:39.419Z,17.29
2018-04-26T13:43:07.678Z,17.05
2018-04-26T13:45:35.955Z,17.24
2018-04-26T13:48:04.239Z,18.21
2018-04-26T13:50:32.574Z,17.80
2018-04-26T13:53:00.826Z,17.59
2018-04-26T13:55:29.102Z,18.28
2018-04-26T13:57:57.390Z,17.74
2018-04-26T14:00:26.896Z,18.54
2018-04-26T14:02:55.147Z,18.90
2018-04-26T14:05:23.466Z,18.06
2018-04-26T14:07:51.791Z,17.24
2018-04-26T14:10:20.068Z,15.97
2018-04-26T14:12:48.349Z,16.93
2018-04-26T14:15:16.603Z,16.89
2018-04-26T14:17:44.912Z,17.26
2018-04-26T14:20:13.171Z,17.85
2018-04-26T14:22:41.447Z,18.48
2018-04-26T14:25:09.726Z,18.29
2018-04-26T14:27:37.999Z,18.41
2018-04-26T14:30:06.263Z,17.64
2018-04-26T14:32:34.542Z,18.53
2018-04-26T14:35:02.799Z,18.11
2018-04-26T14:37:31.831Z,19.29
2018-04-26T14:40:00.196Z,18.10
2018-04-26T14:42:28.459Z,17.17
2018-04-26T14:44:56.745Z,16.87
2018-04-26T14:47:24.999Z,15.60
2018-04-26T14:49:54.039Z,15.04
2018-04-26T14:52:22.325Z,14.84
2018-04-26T14:54:50.582Z,15.40
2018-04-26T14:57:18.867Z,14.84
2018-04-26T14:59:47.131Z,16.68
2018-04-26T15:02:15.423Z,17.70
2018-04-26T15:04:43.780Z,16.96
2018-04-26T15:07:12.068Z,17.54
2018-04-26T15:09:40.344Z,17.42
2018-04-26T15:12:08.711Z,16.71
2018-04-26T15:14:36.975Z,16.09
2018-04-26T15:17:05.234Z,16.63
2018-04-26T15:19:34.365Z,17.29
2018-04-26T15:22:02.632Z,16.80
2018-04-26T15:24:30.920Z,16.85
2018-04-26T15:26:59.197Z,17.12
2018-04-26T15:29:27.463Z,16.87
2018-04-26T15:31:55.783Z,16.82
2018-04-26T15:34:24.000Z,15.93
2018-04-26T15:36:52.278Z,16.73
2018-04-26T15:39:20.551Z,17.64
2018-04-26T15:41:48.823Z,18.03
2018-04-26T15:44:17.929Z,18.21
2018-04-26T15:46:46.124Z,18.29
2018-04-26T15:49:14.455Z,16.67
2018-04-26T15:51:42.735Z,16.26
2018-04-26T15:54:29.432Z,15.66
2018-04-26T15:57:13.223Z,15.09
2018-04-26T15:59:59.481Z,14.71
2018-04-26T16:03:02.768Z,14.55
2018-04-26T16:05:49.015Z,14.52
2018-04-26T16:08:37.554Z,14.11
2018-04-26T16:11:23.713Z,14.10
2018-04-26T16:14:05.412Z,14.15
2018-04-26T16:20:18.907Z,13.70
2018-04-26T16:23:10.665Z,13.62
2018-04-26T16:25:56.726Z,13.54
2018-04-26T16:28:48.559Z,13.58
2018-04-26T16:31:40.521Z,13.60
2018-04-26T16:34:26.788Z,13.95
2018-04-26T16:37:12.741Z,13.84
2018-04-26T16:39:40.954Z,13.05
2018-04-26T16:42:09.331Z,13.44
2018-04-26T16:44:37.631Z,14.07
2018-04-26T16:49:41.225Z,14.92
2018-04-26T16:52:09.491Z,14.74
2018-04-26T16:54:37.751Z,15.88
2018-04-26T16:57:06.791Z,15.56
2018-04-26T16:59:35.146Z,16.32
2018-04-26T17:02:03.527Z,16.89
2018-04-26T17:04:31.887Z,16.43
2018-04-26T17:07:00.256Z,16.38
2018-04-26T17:09:28.477Z,17.38
2018-04-26T17:11:56.747Z,17.85
2018-04-26T17:14:25.116Z,18.49
2018-04-26T17:16:53.392Z,17.97
2018-04-26T17:19:21.663Z,17.72
2018-04-26T17:21:49.943Z,17.34
2018-04-26T17:24:18.230Z,15.26
2018-04-26T17:26:46.602Z,14.81
2018-04-26T17:29:14.985Z,14.69
2018-04-26T17:31:43.252Z,13.66
2018-04-26T17:34:11.536Z,13.82
2018-04-26T17:36:39.861Z,13.72
2018-04-26T17:39:08.967Z,13.22
2018-04-26T17:41:37.317Z,13.12
2018-04-26T17:44:06.220Z,13.01
2018-04-26T17:46:35.261Z,13.09
2018-04-26T17:49:04.574Z,12.68
2018-04-26T17:51:33.065Z,12.80
2018-04-26T17:54:02.917Z,12.54
2018-04-26T17:56:32.817Z,12.17
2018-04-26T17:59:01.734Z,12.30
2018-04-26T18:01:31.381Z,11.83
2018-04-26T18:04:02.190Z,11.91
2018-04-26T18:06:31.930Z,11.86
2018-04-26T18:09:02.030Z,11.76
2018-04-26T18:11:32.008Z,11.46
2018-04-26T18:14:01.894Z,11.66
2018-04-26T18:16:31.783Z,11.74
2018-04-26T18:19:02.492Z,11.57
2018-04-26T18:21:32.299Z,11.31
2018-04-26T18:24:02.348Z,11.30
2018-04-26T18:26:33.773Z,11.33
2018-04-26T18:29:03.776Z,11.14
2018-04-26T18:31:33.631Z,11.12
2018-04-26T18:34:03.480Z,11.12
2018-04-26T18:36:33.412Z,10.99
2018-04-26T18:39:03.409Z,10.96
2018-04-26T18:41:33.355Z,10.81
2018-04-26T18:44:03.312Z,10.91
2018-04-26T18:46:33.137Z,10.70
2018-04-26T18:49:03.776Z,10.60
2018-04-26T18:51:33.836Z,10.68
2018-04-26T18:54:03.767Z,10.78
2018-04-26T18:56:34.447Z,10.57
2018-04-26T18:59:04.391Z,10.44
2018-04-26T19:01:34.257Z,10.32
2018-04-26T19:04:04.135Z,10.34
2018-04-26T19:06:33.886Z,10.53
2018-04-26T19:09:04.079Z,10.44
2018-04-26T19:11:34.643Z,10.44
2018-04-26T19:14:04.815Z,10.34
2018-04-26T19:16:34.662Z,10.35
2018-04-26T19:19:04.672Z,10.54
2018-04-26T19:21:34.669Z,10.71
2018-04-26T19:24:05.649Z,10.71
2018-04-26T19:26:35.553Z,10.79
2018-04-26T19:29:05.534Z,10.88
2018-04-26T19:31:36.156Z,10.89
2018-04-26T19:34:08.504Z,10.79
2018-04-26T19:36:38.844Z,10.80
2018-04-26T19:39:08.857Z,10.90
2018-04-26T19:41:38.589Z,10.89
2018-04-26T19:44:08.601Z,10.92
2018-04-26T19:46:38.525Z,10.93
2018-04-26T19:49:09.219Z,10.84
2018-04-26T19:51:39.054Z,10.69
2018-04-26T19:54:09.714Z,10.67
2018-04-26T19:56:39.483Z,10.45
2018-04-26T19:59:09.560Z,10.34
2018-04-26T20:01:39.496Z,10.18
2018-04-26T20:04:09.511Z,10.17
2018-04-26T20:06:39.529Z,10.36
2018-04-26T20:09:09.665Z,10.38
2018-04-26T20:11:39.756Z,10.26
2018-04-26T20:14:09.751Z,10.33
2018-04-26T20:16:40.077Z,10.36
2018-04-26T20:19:10.880Z,10.46
2018-04-26T20:21:40.711Z,10.66
2018-04-26T20:24:11.648Z,10.70
2018-04-26T20:26:40.911Z,10.74
2018-04-26T20:29:11.152Z,10.74
2018-04-26T20:31:40.468Z,10.62
2018-04-26T20:34:10.648Z,10.68
2018-04-26T20:36:39.943Z,10.70
2018-04-26T20:39:09.182Z,10.54
2018-04-26T20:44:49.707Z,10.29
2018-04-26T20:47:19.037Z,10.24
2018-04-26T20:49:48.895Z,10.27
2018-04-26T20:52:18.852Z,10.24
2018-04-26T20:54:47.220Z,10.09
2018-04-26T20:57:15.731Z,10.04
2018-04-26T20:59:44.852Z,10.05
2018-04-26T21:02:13.203Z,10.00
2018-04-26T21:04:41.460Z,9.83
2018-04-26T21:07:09.751Z,9.77
2018-04-26T21:09:38.016Z,9.83
2018-04-26T21:12:06.327Z,9.75
2018-04-26T21:14:35.372Z,9.62
2018-04-26T21:17:03.676Z,9.19
2018-04-26T21:19:31.935Z,9.04
2018-04-26T21:22:00.208Z,8.90
2018-04-26T21:24:28.483Z,8.94
2018-04-26T21:26:56.736Z,9.05
2018-04-26T21:29:25.005Z,8.91
2018-04-26T21:31:53.296Z,8.93
2018-04-26T21:34:21.546Z,8.78
2018-04-26T21:36:49.826Z,8.49
2018-04-26T21:39:21.284Z,8.72
2018-04-26T21:41:49.603Z,8.76
2018-04-26T21:44:17.856Z,8.88
2018-04-26T21:46:46.123Z,8.93
2018-04-26T21:49:14.398Z,8.94
2018-04-26T21:51:48.232Z,8.83
2018-04-26T21:54:21.974Z,8.91
2018-04-26T21:56:56.641Z,8.86
2018-04-26T21:59:30.539Z,8.82
2018-04-26T22:02:04.231Z,8.84
2018-04-26T22:07:43.119Z,8.67
2018-04-26T22:10:11.395Z,8.62
2018-04-26T22:12:39.671Z,8.32
2018-04-26T22:15:07.931Z,8.15
2018-04-26T22:17:36.208Z,8.22
2018-04-26T22:20:04.468Z,8.08
2018-04-26T22:22:32.753Z,7.71
2018-04-26T22:25:01.024Z,7.82
2018-04-26T22:27:29.273Z,7.61
2018-04-26T22:29:58.340Z,7.69
2018-04-26T22:32:26.597Z,7.75
2018-04-26T22:34:54.947Z,7.80
2018-04-26T22:37:23.348Z,7.73
2018-04-26T22:39:51.590Z,7.51
2018-04-26T22:42:19.877Z,7.52
2018-04-26T22:44:48.131Z,7.57
2018-04-26T22:47:17.319Z,7.56
2018-04-26T22:49:45.561Z,7.56
2018-04-26T22:52:13.823Z,7.51
2018-04-26T22:54:42.077Z,7.44
2018-04-26T22:57:10.357Z,7.43
2018-04-26T22:59:38.612Z,7.42
2018-04-26T23:02:06.974Z,7.42
2018-04-26T23:04:35.271Z,7.44
2018-04-26T23:07:03.539Z,7.32
2018-04-26T23:09:32.564Z,7.19
2018-04-26T23:12:00.839Z,7.15
2018-04-26T23:14:29.123Z,7.21
2018-04-26T23:16:57.402Z,7.22
2018-04-26T23:19:25.664Z,7.05
2018-04-26T23:21:53.923Z,6.95
2018-04-26T23:24:22.191Z,6.83
2018-04-26T23:26:50.464Z,6.93
2018-04-26T23:29:19.484Z,6.89
2018-04-26T23:31:47.755Z,6.66
2018-04-26T23:34:16.017Z,6.61
2018-04-26T23:36:44.281Z,6.64
2018-04-26T23:39:13.319Z,6.70
2018-04-26T23:41:41.578Z,6.69
2018-04-26T23:44:09.831Z,6.69
2018-04-26T23:46:38.103Z,6.53
2018-04-26T23:49:07.126Z,6.46
2018-04-26T23:51:35.383Z,6.43
2018-04-26T23:54:03.673Z,6.27
2018-04-26T23:56:32.127Z,6.36
2018-04-26T23:59:00.419Z,6.35
